sensor_id;sensor_type;location;lat;lon;timestamp;P1;durP1;ratioP1;P2;durP2;ratioP2
57567;SDS011;43403;51.948;5.922;2022-07-24T00:00:46;8.70;;;7.03;;
57567;SDS011;43403;51.948;5.922;2022-07-24T00:03:13;9.43;;;6.82;;
57567;SDS011;43403;51.948;5.922;2022-07-24T00:05:39;10.77;;;7.00;;
57567;SDS011;43403;51.948;5.922;2022-07-24T00:08:06;9.02;;;5.93;;
57567;SDS011;43403;51.948;5.922;2022-07-24T00:10:32;9.52;;;6.68;;
57567;SDS011;43403;51.948;5.922;2022-07-24T00:12:59;7.55;;;6.32;;
57567;SDS011;43403;51.948;5.922;2022-07-24T00:15:25;8.32;;;6.88;;
57567;SDS011;43403;51.948;5.922;2022-07-24T00:17:52;9.00;;;6.93;;
57567;SDS011;43403;51.948;5.922;2022-07-24T00:20:18;11.63;;;7.28;;
57567;SDS011;43403;51.948;5.922;2022-07-24T00:22:45;11.85;;;6.57;;
57567;SDS011;43403;51.948;5.922;2022-07-24T00:25:11;9.27;;;6.80;;
57567;SDS011;43403;51.948;5.922;2022-07-24T00:27:37;8.73;;;6.22;;
57567;SDS011;43403;51.948;5.922;2022-07-24T00:30:04;8.43;;;6.53;;
57567;SDS011;43403;51.948;5.922;2022-07-24T00:32:31;7.80;;;6.00;;
57567;SDS011;43403;51.948;5.922;2022-07-24T00:34:58;8.88;;;6.38;;
57567;SDS011;43403;51.948;5.922;2022-07-24T00:37:24;8.15;;;6.63;;
57567;SDS011;43403;51.948;5.922;2022-07-24T00:39:51;11.45;;;7.18;;
57567;SDS011;43403;51.948;5.922;2022-07-24T00:42:17;7.40;;;6.30;;
57567;SDS011;43403;51.948;5.922;2022-07-24T00:44:44;8.15;;;6.57;;
57567;SDS011;43403;51.948;5.922;2022-07-24T00:47:10;10.18;;;6.80;;
57567;SDS011;43403;51.948;5.922;2022-07-24T00:49:37;10.57;;;7.18;;
57567;SDS011;43403;51.948;5.922;2022-07-24T00:52:03;11.27;;;7.57;;
57567;SDS011;43403;51.948;5.922;2022-07-24T00:54:30;8.80;;;6.80;;
57567;SDS011;43403;51.948;5.922;2022-07-24T00:56:56;8.57;;;6.88;;
57567;SDS011;43403;51.948;5.922;2022-07-24T00:59:23;11.30;;;7.35;;
57567;SDS011;43403;51.948;5.922;2022-07-24T01:01:50;9.02;;;6.88;;
57567;SDS011;43403;51.948;5.922;2022-07-24T01:04:17;9.00;;;7.20;;
57567;SDS011;43403;51.948;5.922;2022-07-24T01:06:45;7.80;;;6.15;;
57567;SDS011;43403;51.948;5.922;2022-07-24T01:09:12;7.60;;;6.55;;
57567;SDS011;43403;51.948;5.922;2022-07-24T01:11:39;9.55;;;6.63;;
57567;SDS011;43403;51.948;5.922;2022-07-24T01:14:06;10.50;;;7.43;;
57567;SDS011;43403;51.948;5.922;2022-07-24T01:16:33;9.15;;;7.10;;
57567;SDS011;43403;51.948;5.922;2022-07-24T01:19:00;8.35;;;7.32;;
57567;SDS011;43403;51.948;5.922;2022-07-24T01:21:28;10.80;;;7.82;;
57567;SDS011;43403;51.948;5.922;2022-07-24T01:23:54;11.35;;;7.07;;
57567;SDS011;43403;51.948;5.922;2022-07-24T01:26:21;9.82;;;7.35;;
57567;SDS011;43403;51.948;5.922;2022-07-24T01:28:47;9.02;;;6.97;;
57567;SDS011;43403;51.948;5.922;2022-07-24T01:31:13;10.63;;;7.55;;
57567;SDS011;43403;51.948;5.922;2022-07-24T01:33:40;9.70;;;7.00;;
57567;SDS011;43403;51.948;5.922;2022-07-24T01:36:07;11.15;;;7.07;;
57567;SDS011;43403;51.948;5.922;2022-07-24T01:38:33;11.15;;;7.60;;
57567;SDS011;43403;51.948;5.922;2022-07-24T01:41:00;11.15;;;8.27;;
57567;SDS011;43403;51.948;5.922;2022-07-24T01:43:26;11.98;;;7.97;;
57567;SDS011;43403;51.948;5.922;2022-07-24T01:45:53;9.77;;;8.02;;
57567;SDS011;43403;51.948;5.922;2022-07-24T01:48:20;10.65;;;9.00;;
57567;SDS011;43403;51.948;5.922;2022-07-24T01:50:46;11.50;;;8.57;;
57567;SDS011;43403;51.948;5.922;2022-07-24T01:53:13;9.13;;;8.05;;
57567;SDS011;43403;51.948;5.922;2022-07-24T01:55:40;13.90;;;8.50;;
57567;SDS011;43403;51.948;5.922;2022-07-24T01:58:06;10.55;;;8.35;;
57567;SDS011;43403;51.948;5.922;2022-07-24T02:00:33;10.57;;;7.78;;
57567;SDS011;43403;51.948;5.922;2022-07-24T02:03:00;11.82;;;8.48;;
57567;SDS011;43403;51.948;5.922;2022-07-24T02:05:26;11.77;;;9.10;;
57567;SDS011;43403;51.948;5.922;2022-07-24T02:07:54;14.50;;;8.70;;
57567;SDS011;43403;51.948;5.922;2022-07-24T02:10:22;10.48;;;8.48;;
57567;SDS011;43403;51.948;5.922;2022-07-24T02:12:50;12.48;;;7.78;;
57567;SDS011;43403;51.948;5.922;2022-07-24T02:15:16;13.75;;;8.32;;
57567;SDS011;43403;51.948;5.922;2022-07-24T02:17:46;10.88;;;7.85;;
57567;SDS011;43403;51.948;5.922;2022-07-24T02:20:17;13.50;;;8.88;;
57567;SDS011;43403;51.948;5.922;2022-07-24T02:22:44;10.77;;;8.85;;
57567;SDS011;43403;51.948;5.922;2022-07-24T02:25:12;14.07;;;8.63;;
57567;SDS011;43403;51.948;5.922;2022-07-24T02:27:39;10.10;;;7.90;;
57567;SDS011;43403;51.948;5.922;2022-07-24T02:30:07;9.05;;;7.75;;
57567;SDS011;43403;51.948;5.922;2022-07-24T02:32:39;10.38;;;7.88;;
57567;SDS011;43403;51.948;5.922;2022-07-24T02:35:05;11.23;;;8.75;;
57567;SDS011;43403;51.948;5.922;2022-07-24T02:37:35;12.43;;;8.40;;
57567;SDS011;43403;51.948;5.922;2022-07-24T02:40:06;10.07;;;8.65;;
57567;SDS011;43403;51.948;5.922;2022-07-24T02:45:01;11.68;;;8.30;;
57567;SDS011;43403;51.948;5.922;2022-07-24T02:47:27;11.57;;;9.05;;
57567;SDS011;43403;51.948;5.922;2022-07-24T02:49:53;8.95;;;7.65;;
57567;SDS011;43403;51.948;5.922;2022-07-24T02:52:20;12.57;;;8.60;;
57567;SDS011;43403;51.948;5.922;2022-07-24T02:54:46;12.35;;;9.00;;
57567;SDS011;43403;51.948;5.922;2022-07-24T02:57:12;12.45;;;8.75;;
57567;SDS011;43403;51.948;5.922;2022-07-24T02:59:39;10.80;;;8.68;;
57567;SDS011;43403;51.948;5.922;2022-07-24T03:02:05;10.77;;;7.80;;
57567;SDS011;43403;51.948;5.922;2022-07-24T03:04:32;10.73;;;9.10;;
57567;SDS011;43403;51.948;5.922;2022-07-24T03:06:58;12.70;;;8.48;;
57567;SDS011;43403;51.948;5.922;2022-07-24T03:09:26;12.77;;;9.02;;
57567;SDS011;43403;51.948;5.922;2022-07-24T03:11:53;11.27;;;8.35;;
57567;SDS011;43403;51.948;5.922;2022-07-24T03:14:19;14.38;;;8.43;;
57567;SDS011;43403;51.948;5.922;2022-07-24T03:16:45;12.30;;;8.30;;
57567;SDS011;43403;51.948;5.922;2022-07-24T03:19:12;10.52;;;8.00;;
57567;SDS011;43403;51.948;5.922;2022-07-24T03:21:38;12.10;;;8.55;;
57567;SDS011;43403;51.948;5.922;2022-07-24T03:24:13;11.15;;;8.43;;
57567;SDS011;43403;51.948;5.922;2022-07-24T03:26:40;11.77;;;8.90;;
57567;SDS011;43403;51.948;5.922;2022-07-24T03:29:06;11.75;;;8.38;;
57567;SDS011;43403;51.948;5.922;2022-07-24T03:31:34;12.02;;;8.88;;
57567;SDS011;43403;51.948;5.922;2022-07-24T03:34:00;13.23;;;8.88;;
57567;SDS011;43403;51.948;5.922;2022-07-24T03:36:27;13.68;;;8.82;;
57567;SDS011;43403;51.948;5.922;2022-07-24T03:38:54;10.93;;;8.70;;
57567;SDS011;43403;51.948;5.922;2022-07-24T03:41:20;13.75;;;8.30;;
57567;SDS011;43403;51.948;5.922;2022-07-24T03:43:47;14.38;;;8.40;;
57567;SDS011;43403;51.948;5.922;2022-07-24T03:46:13;11.07;;;8.75;;
57567;SDS011;43403;51.948;5.922;2022-07-24T03:48:40;12.98;;;9.45;;
57567;SDS011;43403;51.948;5.922;2022-07-24T03:51:06;12.43;;;9.07;;
57567;SDS011;43403;51.948;5.922;2022-07-24T03:53:35;11.40;;;8.27;;
57567;SDS011;43403;51.948;5.922;2022-07-24T03:56:05;16.05;;;8.73;;
57567;SDS011;43403;51.948;5.922;2022-07-24T03:58:32;11.50;;;8.77;;
57567;SDS011;43403;51.948;5.922;2022-07-24T04:01:05;13.05;;;8.40;;
57567;SDS011;43403;51.948;5.922;2022-07-24T04:03:31;13.13;;;9.05;;
57567;SDS011;43403;51.948;5.922;2022-07-24T04:05:59;13.05;;;9.02;;
57567;SDS011;43403;51.948;5.922;2022-07-24T04:08:30;11.32;;;8.45;;
57567;SDS011;43403;51.948;5.922;2022-07-24T04:10:58;10.00;;;8.18;;
57567;SDS011;43403;51.948;5.922;2022-07-24T04:13:26;10.52;;;8.13;;
57567;SDS011;43403;51.948;5.922;2022-07-24T04:15:54;12.75;;;8.80;;
57567;SDS011;43403;51.948;5.922;2022-07-24T04:18:21;14.82;;;8.27;;
57567;SDS011;43403;51.948;5.922;2022-07-24T04:20:48;11.05;;;8.77;;
57567;SDS011;43403;51.948;5.922;2022-07-24T04:23:15;10.88;;;8.68;;
57567;SDS011;43403;51.948;5.922;2022-07-24T04:25:44;10.90;;;8.68;;
57567;SDS011;43403;51.948;5.922;2022-07-24T04:28:11;12.38;;;9.00;;
57567;SDS011;43403;51.948;5.922;2022-07-24T04:30:37;11.45;;;8.95;;
57567;SDS011;43403;51.948;5.922;2022-07-24T04:33:04;10.38;;;8.57;;
57567;SDS011;43403;51.948;5.922;2022-07-24T04:35:30;13.55;;;8.57;;
57567;SDS011;43403;51.948;5.922;2022-07-24T04:37:57;12.15;;;8.75;;
57567;SDS011;43403;51.948;5.922;2022-07-24T04:40:23;12.55;;;9.20;;
57567;SDS011;43403;51.948;5.922;2022-07-24T04:42:50;13.10;;;9.18;;
57567;SDS011;43403;51.948;5.922;2022-07-24T04:45:16;11.05;;;8.35;;
57567;SDS011;43403;51.948;5.922;2022-07-24T04:47:43;9.90;;;8.82;;
57567;SDS011;43403;51.948;5.922;2022-07-24T04:50:09;13.93;;;10.20;;
57567;SDS011;43403;51.948;5.922;2022-07-24T04:52:36;14.35;;;10.73;;
57567;SDS011;43403;51.948;5.922;2022-07-24T04:55:03;12.88;;;10.27;;
57567;SDS011;43403;51.948;5.922;2022-07-24T04:57:30;12.50;;;10.05;;
57567;SDS011;43403;51.948;5.922;2022-07-24T04:59:56;13.05;;;10.35;;
57567;SDS011;43403;51.948;5.922;2022-07-24T05:02:23;16.05;;;11.85;;
57567;SDS011;43403;51.948;5.922;2022-07-24T05:04:49;13.65;;;11.57;;
57567;SDS011;43403;51.948;5.922;2022-07-24T05:07:16;15.85;;;11.68;;
57567;SDS011;43403;51.948;5.922;2022-07-24T05:09:42;16.65;;;13.27;;
57567;SDS011;43403;51.948;5.922;2022-07-24T05:12:09;15.35;;;12.15;;
57567;SDS011;43403;51.948;5.922;2022-07-24T05:14:35;15.93;;;12.85;;
57567;SDS011;43403;51.948;5.922;2022-07-24T05:17:02;17.98;;;14.13;;
57567;SDS011;43403;51.948;5.922;2022-07-24T05:19:28;18.73;;;13.98;;
57567;SDS011;43403;51.948;5.922;2022-07-24T05:21:54;22.02;;;14.65;;
57567;SDS011;43403;51.948;5.922;2022-07-24T05:24:21;17.70;;;14.30;;
57567;SDS011;43403;51.948;5.922;2022-07-24T05:26:47;19.33;;;14.77;;
57567;SDS011;43403;51.948;5.922;2022-07-24T05:31:42;17.27;;;15.30;;
57567;SDS011;43403;51.948;5.922;2022-07-24T05:34:09;23.55;;;16.52;;
57567;SDS011;43403;51.948;5.922;2022-07-24T05:36:35;22.05;;;17.70;;
57567;SDS011;43403;51.948;5.922;2022-07-24T05:39:03;21.55;;;17.23;;
57567;SDS011;43403;51.948;5.922;2022-07-24T05:41:31;20.35;;;16.98;;
57567;SDS011;43403;51.948;5.922;2022-07-24T05:43:57;24.40;;;18.67;;
57567;SDS011;43403;51.948;5.922;2022-07-24T05:46:24;26.52;;;18.17;;
57567;SDS011;43403;51.948;5.922;2022-07-24T05:48:50;25.58;;;20.25;;
57567;SDS011;43403;51.948;5.922;2022-07-24T05:51:17;23.92;;;19.85;;
57567;SDS011;43403;51.948;5.922;2022-07-24T05:53:43;28.20;;;20.42;;
57567;SDS011;43403;51.948;5.922;2022-07-24T05:56:10;27.00;;;20.23;;
57567;SDS011;43403;51.948;5.922;2022-07-24T05:58:36;27.27;;;19.13;;
57567;SDS011;43403;51.948;5.922;2022-07-24T06:01:03;25.90;;;19.98;;
57567;SDS011;43403;51.948;5.922;2022-07-24T06:03:29;25.73;;;19.15;;
57567;SDS011;43403;51.948;5.922;2022-07-24T06:05:56;26.48;;;20.67;;
57567;SDS011;43403;51.948;5.922;2022-07-24T06:08:22;23.83;;;21.23;;
57567;SDS011;43403;51.948;5.922;2022-07-24T06:10:49;28.70;;;22.65;;
57567;SDS011;43403;51.948;5.922;2022-07-24T06:13:15;31.60;;;23.58;;
57567;SDS011;43403;51.948;5.922;2022-07-24T06:15:41;31.20;;;23.20;;
57567;SDS011;43403;51.948;5.922;2022-07-24T06:18:08;27.85;;;21.42;;
57567;SDS011;43403;51.948;5.922;2022-07-24T06:20:34;24.48;;;17.42;;
57567;SDS011;43403;51.948;5.922;2022-07-24T06:23:01;27.52;;;19.55;;
57567;SDS011;43403;51.948;5.922;2022-07-24T06:25:27;25.38;;;17.50;;
57567;SDS011;43403;51.948;5.922;2022-07-24T06:27:53;19.85;;;15.30;;
57567;SDS011;43403;51.948;5.922;2022-07-24T06:30:21;20.75;;;14.50;;
57567;SDS011;43403;51.948;5.922;2022-07-24T06:35:15;20.33;;;13.55;;
57567;SDS011;43403;51.948;5.922;2022-07-24T06:37:42;19.58;;;13.57;;
57567;SDS011;43403;51.948;5.922;2022-07-24T06:40:13;21.98;;;12.32;;
57567;SDS011;43403;51.948;5.922;2022-07-24T06:42:40;16.08;;;12.52;;
57567;SDS011;43403;51.948;5.922;2022-07-24T06:45:07;16.60;;;12.18;;
57567;SDS011;43403;51.948;5.922;2022-07-24T06:47:34;17.80;;;12.25;;
57567;SDS011;43403;51.948;5.922;2022-07-24T06:50:00;19.20;;;13.15;;
57567;SDS011;43403;51.948;5.922;2022-07-24T06:52:27;17.30;;;12.52;;
57567;SDS011;43403;51.948;5.922;2022-07-24T06:54:53;15.20;;;10.93;;
57567;SDS011;43403;51.948;5.922;2022-07-24T06:57:20;12.65;;;9.60;;
57567;SDS011;43403;51.948;5.922;2022-07-24T06:59:46;13.38;;;9.52;;
57567;SDS011;43403;51.948;5.922;2022-07-24T07:02:13;10.60;;;8.55;;
57567;SDS011;43403;51.948;5.922;2022-07-24T07:04:39;15.75;;;8.88;;
57567;SDS011;43403;51.948;5.922;2022-07-24T07:07:06;13.43;;;9.52;;
57567;SDS011;43403;51.948;5.922;2022-07-24T07:09:33;11.20;;;8.05;;
57567;SDS011;43403;51.948;5.922;2022-07-24T07:12:02;10.10;;;8.10;;
57567;SDS011;43403;51.948;5.922;2022-07-24T07:14:30;15.80;;;8.88;;
57567;SDS011;43403;51.948;5.922;2022-07-24T07:16:56;11.27;;;7.28;;
57567;SDS011;43403;51.948;5.922;2022-07-24T07:19:23;10.02;;;7.53;;
57567;SDS011;43403;51.948;5.922;2022-07-24T07:21:49;12.02;;;8.48;;
57567;SDS011;43403;51.948;5.922;2022-07-24T07:24:16;11.77;;;8.20;;
57567;SDS011;43403;51.948;5.922;2022-07-24T07:26:42;11.13;;;7.70;;
57567;SDS011;43403;51.948;5.922;2022-07-24T07:29:09;10.93;;;8.15;;
57567;SDS011;43403;51.948;5.922;2022-07-24T07:31:35;12.38;;;8.27;;
57567;SDS011;43403;51.948;5.922;2022-07-24T07:34:02;11.77;;;8.15;;
57567;SDS011;43403;51.948;5.922;2022-07-24T07:36:29;9.65;;;7.70;;
57567;SDS011;43403;51.948;5.922;2022-07-24T07:38:55;11.32;;;8.13;;
57567;SDS011;43403;51.948;5.922;2022-07-24T07:41:24;11.77;;;8.00;;
57567;SDS011;43403;51.948;5.922;2022-07-24T07:43:50;12.57;;;7.30;;
57567;SDS011;43403;51.948;5.922;2022-07-24T07:46:17;12.57;;;7.07;;
57567;SDS011;43403;51.948;5.922;2022-07-24T07:48:44;13.90;;;8.25;;
57567;SDS011;43403;51.948;5.922;2022-07-24T07:51:11;8.18;;;6.47;;
57567;SDS011;43403;51.948;5.922;2022-07-24T07:53:38;9.55;;;6.78;;
57567;SDS011;43403;51.948;5.922;2022-07-24T07:56:04;9.07;;;6.15;;
57567;SDS011;43403;51.948;5.922;2022-07-24T07:58:31;9.73;;;5.85;;
57567;SDS011;43403;51.948;5.922;2022-07-24T08:00:57;11.73;;;5.45;;
57567;SDS011;43403;51.948;5.922;2022-07-24T08:03:24;7.45;;;5.20;;
57567;SDS011;43403;51.948;5.922;2022-07-24T08:05:50;7.70;;;5.45;;
57567;SDS011;43403;51.948;5.922;2022-07-24T08:08:24;10.50;;;4.63;;
57567;SDS011;43403;51.948;5.922;2022-07-24T08:10:50;7.85;;;5.35;;
57567;SDS011;43403;51.948;5.922;2022-07-24T08:13:16;9.32;;;5.18;;
57567;SDS011;43403;51.948;5.922;2022-07-24T08:15:44;7.43;;;4.87;;
57567;SDS011;43403;51.948;5.922;2022-07-24T08:18:10;12.38;;;4.82;;
57567;SDS011;43403;51.948;5.922;2022-07-24T08:20:37;8.77;;;4.93;;
57567;SDS011;43403;51.948;5.922;2022-07-24T08:23:03;8.15;;;3.95;;
57567;SDS011;43403;51.948;5.922;2022-07-24T08:25:30;8.10;;;4.60;;
57567;SDS011;43403;51.948;5.922;2022-07-24T08:27:56;7.43;;;4.55;;
57567;SDS011;43403;51.948;5.922;2022-07-24T08:30:23;5.78;;;3.97;;
57567;SDS011;43403;51.948;5.922;2022-07-24T08:32:51;6.45;;;4.15;;
57567;SDS011;43403;51.948;5.922;2022-07-24T08:35:18;4.68;;;3.20;;
57567;SDS011;43403;51.948;5.922;2022-07-24T08:37:44;6.13;;;3.50;;
57567;SDS011;43403;51.948;5.922;2022-07-24T08:40:11;5.38;;;3.63;;
57567;SDS011;43403;51.948;5.922;2022-07-24T08:42:38;5.03;;;3.00;;
57567;SDS011;43403;51.948;5.922;2022-07-24T08:45:05;5.53;;;3.38;;
57567;SDS011;43403;51.948;5.922;2022-07-24T08:47:33;5.93;;;3.28;;
57567;SDS011;43403;51.948;5.922;2022-07-24T08:50:00;5.63;;;3.13;;
57567;SDS011;43403;51.948;5.922;2022-07-24T08:52:29;3.95;;;2.80;;
57567;SDS011;43403;51.948;5.922;2022-07-24T08:54:55;6.05;;;3.05;;
57567;SDS011;43403;51.948;5.922;2022-07-24T08:57:22;4.32;;;2.88;;
57567;SDS011;43403;51.948;5.922;2022-07-24T08:59:48;3.72;;;2.75;;
57567;SDS011;43403;51.948;5.922;2022-07-24T09:02:15;3.75;;;2.70;;
57567;SDS011;43403;51.948;5.922;2022-07-24T09:04:42;4.25;;;2.63;;
57567;SDS011;43403;51.948;5.922;2022-07-24T09:07:14;3.35;;;2.60;;
57567;SDS011;43403;51.948;5.922;2022-07-24T09:09:43;4.32;;;2.58;;
57567;SDS011;43403;51.948;5.922;2022-07-24T09:12:13;2.97;;;2.47;;
57567;SDS011;43403;51.948;5.922;2022-07-24T09:14:41;3.72;;;2.67;;
57567;SDS011;43403;51.948;5.922;2022-07-24T09:17:10;3.35;;;2.47;;
57567;SDS011;43403;51.948;5.922;2022-07-24T09:25:09;3.47;;;2.78;;
57567;SDS011;43403;51.948;5.922;2022-07-24T09:32:51;4.00;;;2.28;;
57567;SDS011;43403;51.948;5.922;2022-07-24T09:35:21;3.80;;;2.42;;
57567;SDS011;43403;51.948;5.922;2022-07-24T09:38:09;3.53;;;2.30;;
57567;SDS011;43403;51.948;5.922;2022-07-24T09:40:38;4.03;;;2.38;;
57567;SDS011;43403;51.948;5.922;2022-07-24T09:43:19;3.65;;;2.65;;
57567;SDS011;43403;51.948;5.922;2022-07-24T09:45:52;6.07;;;2.63;;
57567;SDS011;43403;51.948;5.922;2022-07-24T09:48:32;5.35;;;2.50;;
57567;SDS011;43403;51.948;5.922;2022-07-24T09:51:01;3.05;;;2.40;;
57567;SDS011;43403;51.948;5.922;2022-07-24T09:53:30;4.63;;;2.30;;
57567;SDS011;43403;51.948;5.922;2022-07-24T09:56:07;2.53;;;2.13;;
57567;SDS011;43403;51.948;5.922;2022-07-24T09:58:37;3.05;;;2.42;;
57567;SDS011;43403;51.948;5.922;2022-07-24T10:01:06;3.05;;;2.45;;
57567;SDS011;43403;51.948;5.922;2022-07-24T10:03:35;3.03;;;2.25;;
57567;SDS011;43403;51.948;5.922;2022-07-24T10:06:07;3.35;;;2.58;;
57567;SDS011;43403;51.948;5.922;2022-07-24T10:08:36;2.80;;;2.30;;
57567;SDS011;43403;51.948;5.922;2022-07-24T10:11:04;3.83;;;2.15;;
57567;SDS011;43403;51.948;5.922;2022-07-24T10:13:30;3.35;;;2.45;;
57567;SDS011;43403;51.948;5.922;2022-07-24T10:18:54;4.13;;;2.28;;
57567;SDS011;43403;51.948;5.922;2022-07-24T10:21:21;4.80;;;2.00;;
57567;SDS011;43403;51.948;5.922;2022-07-24T10:23:57;3.33;;;2.17;;
57567;SDS011;43403;51.948;5.922;2022-07-24T10:26:35;2.55;;;2.15;;
57567;SDS011;43403;51.948;5.922;2022-07-24T10:29:10;3.83;;;2.47;;
57567;SDS011;43403;51.948;5.922;2022-07-24T10:31:48;3.28;;;2.30;;
57567;SDS011;43403;51.948;5.922;2022-07-24T10:39:58;3.55;;;2.33;;
57567;SDS011;43403;51.948;5.922;2022-07-24T10:45:32;4.03;;;2.10;;
57567;SDS011;43403;51.948;5.922;2022-07-24T10:53:25;3.13;;;2.30;;
57567;SDS011;43403;51.948;5.922;2022-07-24T10:55:52;3.55;;;2.08;;
57567;SDS011;43403;51.948;5.922;2022-07-24T11:01:29;5.30;;;2.65;;
57567;SDS011;43403;51.948;5.922;2022-07-24T11:03:56;4.55;;;2.50;;
57567;SDS011;43403;51.948;5.922;2022-07-24T11:06:41;4.20;;;2.78;;
57567;SDS011;43403;51.948;5.922;2022-07-24T11:09:12;3.75;;;2.40;;
57567;SDS011;43403;51.948;5.922;2022-07-24T11:14:22;2.97;;;2.33;;
57567;SDS011;43403;51.948;5.922;2022-07-24T11:16:50;3.28;;;2.47;;
57567;SDS011;43403;51.948;5.922;2022-07-24T11:21:44;4.13;;;2.40;;
57567;SDS011;43403;51.948;5.922;2022-07-24T11:26:51;2.58;;;2.22;;
57567;SDS011;43403;51.948;5.922;2022-07-24T11:29:36;2.92;;;2.22;;
57567;SDS011;43403;51.948;5.922;2022-07-24T11:32:08;5.95;;;2.25;;
57567;SDS011;43403;51.948;5.922;2022-07-24T11:34:47;2.50;;;2.30;;
57567;SDS011;43403;51.948;5.922;2022-07-24T11:37:16;3.28;;;2.10;;
57567;SDS011;43403;51.948;5.922;2022-07-24T11:39:43;4.50;;;2.35;;
57567;SDS011;43403;51.948;5.922;2022-07-24T11:42:12;2.97;;;2.38;;
57567;SDS011;43403;51.948;5.922;2022-07-24T11:44:47;3.13;;;2.42;;
57567;SDS011;43403;51.948;5.922;2022-07-24T11:47:16;3.03;;;2.47;;
57567;SDS011;43403;51.948;5.922;2022-07-24T11:49:48;4.28;;;2.83;;
57567;SDS011;43403;51.948;5.922;2022-07-24T11:54:52;4.63;;;2.42;;
57567;SDS011;43403;51.948;5.922;2022-07-24T11:57:24;3.40;;;2.30;;
57567;SDS011;43403;51.948;5.922;2022-07-24T12:00:26;3.17;;;2.47;;
57567;SDS011;43403;51.948;5.922;2022-07-24T12:02:57;3.38;;;2.33;;
57567;SDS011;43403;51.948;5.922;2022-07-24T12:05:28;7.22;;;2.47;;
57567;SDS011;43403;51.948;5.922;2022-07-24T12:08:00;3.90;;;2.20;;
57567;SDS011;43403;51.948;5.922;2022-07-24T12:10:28;3.75;;;2.60;;
57567;SDS011;43403;51.948;5.922;2022-07-24T12:12:55;4.30;;;2.38;;
57567;SDS011;43403;51.948;5.922;2022-07-24T12:15:23;4.22;;;2.58;;
57567;SDS011;43403;51.948;5.922;2022-07-24T12:20:29;3.38;;;2.72;;
57567;SDS011;43403;51.948;5.922;2022-07-24T12:22:58;4.47;;;2.50;;
57567;SDS011;43403;51.948;5.922;2022-07-24T12:25:26;5.07;;;2.15;;
57567;SDS011;43403;51.948;5.922;2022-07-24T12:30:34;2.85;;;2.35;;
57567;SDS011;43403;51.948;5.922;2022-07-24T12:33:07;4.82;;;2.70;;
57567;SDS011;43403;51.948;5.922;2022-07-24T12:38:38;4.40;;;2.80;;
57567;SDS011;43403;51.948;5.922;2022-07-24T12:41:13;2.47;;;2.28;;
57567;SDS011;43403;51.948;5.922;2022-07-24T12:46:32;5.70;;;2.40;;
57567;SDS011;43403;51.948;5.922;2022-07-24T12:49:04;2.83;;;2.40;;
57567;SDS011;43403;51.948;5.922;2022-07-24T12:51:48;3.38;;;2.50;;
57567;SDS011;43403;51.948;5.922;2022-07-24T12:54:26;4.28;;;2.50;;
57567;SDS011;43403;51.948;5.922;2022-07-24T12:57:01;2.70;;;2.20;;
57567;SDS011;43403;51.948;5.922;2022-07-24T12:59:45;2.92;;;2.20;;
57567;SDS011;43403;51.948;5.922;2022-07-24T13:02:16;4.82;;;2.60;;
57567;SDS011;43403;51.948;5.922;2022-07-24T13:04:47;3.83;;;2.40;;
57567;SDS011;43403;51.948;5.922;2022-07-24T13:07:17;3.70;;;2.25;;
57567;SDS011;43403;51.948;5.922;2022-07-24T13:09:45;3.67;;;2.08;;
57567;SDS011;43403;51.948;5.922;2022-07-24T13:12:12;2.85;;;2.40;;
57567;SDS011;43403;51.948;5.922;2022-07-24T13:14:39;2.85;;;2.42;;
57567;SDS011;43403;51.948;5.922;2022-07-24T13:17:07;4.07;;;2.45;;
57567;SDS011;43403;51.948;5.922;2022-07-24T13:19:39;2.97;;;2.38;;
57567;SDS011;43403;51.948;5.922;2022-07-24T13:22:07;3.08;;;2.35;;
57567;SDS011;43403;51.948;5.922;2022-07-24T13:24:34;4.13;;;2.00;;
57567;SDS011;43403;51.948;5.922;2022-07-24T13:27:04;3.95;;;2.25;;
57567;SDS011;43403;51.948;5.922;2022-07-24T13:29:32;2.50;;;2.20;;
57567;SDS011;43403;51.948;5.922;2022-07-24T13:32:00;2.45;;;2.20;;
57567;SDS011;43403;51.948;5.922;2022-07-24T13:36:56;3.80;;;2.13;;
57567;SDS011;43403;51.948;5.922;2022-07-24T13:39:23;2.67;;;1.90;;
57567;SDS011;43403;51.948;5.922;2022-07-24T13:41:49;3.15;;;2.03;;
57567;SDS011;43403;51.948;5.922;2022-07-24T13:44:16;1.98;;;1.75;;
57567;SDS011;43403;51.948;5.922;2022-07-24T13:46:42;3.08;;;1.92;;
57567;SDS011;43403;51.948;5.922;2022-07-24T13:49:09;3.17;;;2.10;;
57567;SDS011;43403;51.948;5.922;2022-07-24T13:51:36;3.93;;;2.23;;
57567;SDS011;43403;51.948;5.922;2022-07-24T13:54:03;2.50;;;2.10;;
57567;SDS011;43403;51.948;5.922;2022-07-24T13:56:31;3.65;;;2.60;;
57567;SDS011;43403;51.948;5.922;2022-07-24T13:58:59;3.42;;;1.90;;
57567;SDS011;43403;51.948;5.922;2022-07-24T14:04:01;2.03;;;1.83;;
57567;SDS011;43403;51.948;5.922;2022-07-24T14:06:50;2.95;;;1.88;;
57567;SDS011;43403;51.948;5.922;2022-07-24T14:09:16;3.63;;;2.20;;
57567;SDS011;43403;51.948;5.922;2022-07-24T14:11:43;4.23;;;2.10;;
57567;SDS011;43403;51.948;5.922;2022-07-24T14:14:09;2.30;;;2.10;;
57567;SDS011;43403;51.948;5.922;2022-07-24T14:16:36;2.67;;;2.17;;
57567;SDS011;43403;51.948;5.922;2022-07-24T14:19:03;3.30;;;2.20;;
57567;SDS011;43403;51.948;5.922;2022-07-24T14:21:30;3.50;;;2.33;;
57567;SDS011;43403;51.948;5.922;2022-07-24T14:23:59;3.78;;;2.30;;
57567;SDS011;43403;51.948;5.922;2022-07-24T14:26:25;3.25;;;2.60;;
57567;SDS011;43403;51.948;5.922;2022-07-24T14:28:52;2.42;;;2.08;;
57567;SDS011;43403;51.948;5.922;2022-07-24T14:31:18;3.83;;;1.95;;
57567;SDS011;43403;51.948;5.922;2022-07-24T14:33:45;4.57;;;2.20;;
57567;SDS011;43403;51.948;5.922;2022-07-24T14:36:11;2.10;;;1.88;;
57567;SDS011;43403;51.948;5.922;2022-07-24T14:38:38;6.45;;;2.50;;
57567;SDS011;43403;51.948;5.922;2022-07-24T14:41:04;3.13;;;2.03;;
57567;SDS011;43403;51.948;5.922;2022-07-24T14:43:30;2.43;;;2.23;;
57567;SDS011;43403;51.948;5.922;2022-07-24T14:45:57;3.45;;;2.17;;
57567;SDS011;43403;51.948;5.922;2022-07-24T14:48:23;2.50;;;1.90;;
57567;SDS011;43403;51.948;5.922;2022-07-24T14:50:50;2.13;;;1.90;;
57567;SDS011;43403;51.948;5.922;2022-07-24T14:53:16;3.10;;;2.15;;
57567;SDS011;43403;51.948;5.922;2022-07-24T14:55:43;2.73;;;2.13;;
57567;SDS011;43403;51.948;5.922;2022-07-24T14:58:12;2.50;;;1.90;;
57567;SDS011;43403;51.948;5.922;2022-07-24T15:00:38;3.07;;;2.10;;
57567;SDS011;43403;51.948;5.922;2022-07-24T15:03:05;2.97;;;2.00;;
57567;SDS011;43403;51.948;5.922;2022-07-24T15:05:31;3.80;;;1.98;;
57567;SDS011;43403;51.948;5.922;2022-07-24T15:07:58;2.43;;;2.23;;
57567;SDS011;43403;51.948;5.922;2022-07-24T15:10:24;4.23;;;2.20;;
57567;SDS011;43403;51.948;5.922;2022-07-24T15:12:50;3.40;;;2.83;;
57567;SDS011;43403;51.948;5.922;2022-07-24T15:15:17;4.80;;;2.20;;
57567;SDS011;43403;51.948;5.922;2022-07-24T15:17:44;2.42;;;2.17;;
57567;SDS011;43403;51.948;5.922;2022-07-24T15:20:10;3.38;;;2.13;;
57567;SDS011;43403;51.948;5.922;2022-07-24T15:22:39;2.53;;;2.10;;
57567;SDS011;43403;51.948;5.922;2022-07-24T15:25:05;3.60;;;2.10;;
57567;SDS011;43403;51.948;5.922;2022-07-24T15:27:33;4.28;;;2.30;;
57567;SDS011;43403;51.948;5.922;2022-07-24T15:29:59;3.17;;;2.35;;
57567;SDS011;43403;51.948;5.922;2022-07-24T15:32:27;4.97;;;2.40;;
57567;SDS011;43403;51.948;5.922;2022-07-24T15:34:53;4.60;;;2.97;;
57567;SDS011;43403;51.948;5.922;2022-07-24T15:37:20;3.90;;;2.43;;
57567;SDS011;43403;51.948;5.922;2022-07-24T15:39:46;2.53;;;2.33;;
57567;SDS011;43403;51.948;5.922;2022-07-24T15:42:13;4.37;;;2.33;;
57567;SDS011;43403;51.948;5.922;2022-07-24T15:44:39;3.88;;;2.58;;
57567;SDS011;43403;51.948;5.922;2022-07-24T15:47:06;3.13;;;2.10;;
57567;SDS011;43403;51.948;5.922;2022-07-24T15:49:32;3.93;;;2.30;;